KGLS/GLS METAR and TAF weather

Enter ICAO airport designator
Station Type Date Time Source
KGLS METAR 2019/05/19 19:52 UTC NOAA

KGLS 191952Z 15012KT 6SM HZ FEW013 29/25 A2988 RMK AO2 SLP118 T02890250


Station Type Date Time Source
KGLS Decoded METAR 2019/05/19 19:52 UTC NOAA

SCHOLES FIELD, TX, United States (KGLS) 29-16N 094-52W 6M
May 19, 2019 - 03:52 PM EDT / 2019.05.19 1952 UTC
Wind: from the SSE (150 degrees) at 14 MPH (12 KT):0
Visibility: 6 mile(s):0
Sky conditions: mostly clear
Weather: haze
Temperature: 84.0 F (28.9 C)
Dew Point: 77.0 F (25.0 C)
Relative Humidity: 79%
Pressure (altimeter): 29.88 in. Hg (1011 hPa)
ob: KGLS 191952Z 15012KT 6SM HZ FEW013 29/25 A2988 RMK AO2 SLP118 T02890250
cycle: 20

Station Type Date Time Source
KGLS TAF 2019/05/19 18:22 UTC NOAA

TAF KGLS 191720Z 1918/2018 16013KT 6SM HZ FEW018 OVC035
FM192000 17010KT P6SM FEW100
FM200400 14010KT P6SM BKN015
FM201500 16014KT P6SM BKN025

Example: see airport list